createdAt,value
2018-03-19T00:01:10.529Z,-2.90
2018-03-19T00:03:38.790Z,-2.90
2018-03-19T00:06:06.587Z,-2.90
2018-03-19T00:08:34.095Z,-2.90
2018-03-19T00:11:01.600Z,-2.90
2018-03-19T00:13:29.108Z,-2.90
2018-03-19T00:15:56.622Z,-2.90
2018-03-19T00:18:24.471Z,-2.80
2018-03-19T00:20:51.990Z,-2.90
2018-03-19T00:23:19.510Z,-2.80
2018-03-19T00:25:47.034Z,-2.90
2018-03-19T00:28:14.543Z,-2.90
2018-03-19T00:30:42.054Z,-2.90
2018-03-19T00:33:10.330Z,-2.90
2018-03-19T00:35:38.770Z,-2.90
2018-03-19T00:38:06.282Z,-3.00
2018-03-19T00:40:33.884Z,-3.00
2018-03-19T00:43:01.385Z,-3.00
2018-03-19T00:45:28.878Z,-3.00
2018-03-19T00:47:56.406Z,-3.00
2018-03-19T00:50:23.928Z,-2.90
2018-03-19T00:52:51.484Z,-3.00
2018-03-19T00:55:19.285Z,-3.00
2018-03-19T00:57:47.597Z,-3.00
2018-03-19T01:00:15.095Z,-3.00
2018-03-19T01:02:42.759Z,-3.00
2018-03-19T01:05:10.280Z,-3.00
2018-03-19T01:07:37.802Z,-3.00
2018-03-19T01:10:05.600Z,-3.00
2018-03-19T01:12:33.106Z,-3.00
2018-03-19T01:15:00.628Z,-3.00
2018-03-19T01:17:28.133Z,-3.00
2018-03-19T01:19:56.413Z,-3.00
2018-03-19T01:22:23.932Z,-3.00
2018-03-19T01:24:51.449Z,-3.00
2018-03-19T01:27:19.060Z,-3.00
2018-03-19T01:29:46.575Z,-3.00
2018-03-19T01:32:14.161Z,-3.00
2018-03-19T01:34:41.808Z,-3.00
2018-03-19T01:37:09.322Z,-3.00
2018-03-19T01:39:37.628Z,-3.10
2018-03-19T01:42:05.151Z,-3.10
2018-03-19T01:44:32.863Z,-3.10
2018-03-19T01:47:00.536Z,-3.20
2018-03-19T01:49:28.053Z,-3.10
2018-03-19T01:51:55.561Z,-3.10
2018-03-19T01:54:23.125Z,-3.10
2018-03-19T01:56:50.650Z,-3.10
2018-03-19T01:59:18.163Z,-3.20
2018-03-19T02:01:45.689Z,-3.30
2018-03-19T02:04:13.328Z,-3.30
2018-03-19T02:06:40.853Z,-3.40
2018-03-19T02:09:08.355Z,-3.40
2018-03-19T02:11:35.858Z,-3.50
2018-03-19T02:14:03.370Z,-3.50
2018-03-19T02:16:31.106Z,-3.50
2018-03-19T02:18:59.397Z,-3.50
2018-03-19T02:21:26.968Z,-3.50
2018-03-19T02:23:54.489Z,-3.50
2018-03-19T02:26:22.770Z,-3.50
2018-03-19T02:28:51.064Z,-3.60
2018-03-19T02:31:18.568Z,-3.60
2018-03-19T02:33:46.106Z,-3.60
2018-03-19T02:36:13.663Z,-3.60
2018-03-19T02:38:41.187Z,-3.60
2018-03-19T02:41:08.867Z,-3.70
2018-03-19T02:43:36.379Z,-3.70
2018-03-19T02:46:03.877Z,-3.70
2018-03-19T02:48:32.243Z,-3.70
2018-03-19T02:50:59.772Z,-3.70
2018-03-19T02:53:27.290Z,-3.70
2018-03-19T02:55:54.808Z,-3.70
2018-03-19T02:58:22.335Z,-3.60
2018-03-19T03:00:49.856Z,-3.70
2018-03-19T03:03:17.406Z,-3.70
2018-03-19T03:05:45.064Z,-3.60
2018-03-19T03:08:12.553Z,-3.60
2018-03-19T03:10:40.070Z,-3.50
2018-03-19T03:13:08.326Z,-3.50
2018-03-19T03:15:36.018Z,-3.50
2018-03-19T03:18:03.529Z,-3.50
2018-03-19T03:20:31.094Z,-3.50
2018-03-19T03:22:58.653Z,-3.50
2018-03-19T03:25:26.328Z,-3.60
2018-03-19T03:27:53.840Z,-3.50
2018-03-19T03:30:21.396Z,-3.50
2018-03-19T03:32:48.922Z,-3.50
2018-03-19T03:35:17.185Z,-3.60
2018-03-19T03:37:44.707Z,-3.60
2018-03-19T03:40:12.257Z,-3.50
2018-03-19T03:42:39.780Z,-3.60
2018-03-19T03:45:08.061Z,-3.50
2018-03-19T03:47:36.348Z,-3.50
2018-03-19T03:50:03.938Z,-3.60
2018-03-19T03:52:32.140Z,-3.60
2018-03-19T03:54:59.661Z,-3.70
2018-03-19T03:57:27.161Z,-3.70
2018-03-19T03:59:57.315Z,-3.70
2018-03-19T04:02:24.994Z,-3.60
2018-03-19T04:04:52.489Z,-3.60
2018-03-19T04:07:20.004Z,-3.60
2018-03-19T04:09:47.522Z,-3.60
2018-03-19T04:12:15.048Z,-3.60
2018-03-19T04:14:42.583Z,-3.60
2018-03-19T04:17:10.114Z,-3.50
2018-03-19T04:19:37.612Z,-3.60
2018-03-19T04:22:05.248Z,-3.60
2018-03-19T04:24:32.805Z,-3.70
2018-03-19T04:27:00.314Z,-3.70
2018-03-19T04:29:28.051Z,-3.70
2018-03-19T04:31:55.575Z,-3.70
2018-03-19T04:34:23.873Z,-3.70
2018-03-19T04:36:51.401Z,-3.70
2018-03-19T04:39:19.103Z,-3.70
2018-03-19T04:41:46.643Z,-3.70
2018-03-19T04:44:14.187Z,-3.80
2018-03-19T04:46:41.887Z,-3.70
2018-03-19T04:49:09.393Z,-3.70
2018-03-19T04:51:36.917Z,-3.80
2018-03-19T04:54:04.655Z,-3.80
2018-03-19T04:56:32.188Z,-3.80
2018-03-19T04:58:59.894Z,-3.70
2018-03-19T05:01:27.441Z,-3.70
2018-03-19T05:03:54.996Z,-3.70
2018-03-19T05:06:22.551Z,-3.70
2018-03-19T05:08:50.089Z,-3.80
2018-03-19T05:11:17.639Z,-3.80
2018-03-19T05:13:45.413Z,-3.80
2018-03-19T05:16:13.799Z,-3.70
2018-03-19T05:18:41.469Z,-3.70
2018-03-19T05:21:08.992Z,-3.80
2018-03-19T05:23:36.594Z,-3.80
2018-03-19T05:26:04.126Z,-3.70
2018-03-19T05:28:31.727Z,-3.70
2018-03-19T05:30:59.264Z,-3.70
2018-03-19T05:33:27.583Z,-3.70
2018-03-19T05:35:55.091Z,-3.70
2018-03-19T05:38:22.612Z,-3.70
2018-03-19T05:40:50.784Z,-3.70
2018-03-19T05:43:18.410Z,-3.80
2018-03-19T05:45:46.620Z,-3.80
2018-03-19T05:48:14.477Z,-3.70
2018-03-19T05:50:43.140Z,-3.70
2018-03-19T05:53:11.022Z,-3.70
2018-03-19T05:55:39.831Z,-3.60
2018-03-19T05:58:08.661Z,-3.50
2018-03-19T06:00:37.435Z,-3.50
2018-03-19T06:03:04.986Z,-3.60
2018-03-19T06:05:32.663Z,-3.60
2018-03-19T06:08:01.338Z,-3.60
2018-03-19T06:10:29.705Z,-3.60
2018-03-19T06:12:57.199Z,-3.70
2018-03-19T06:15:27.734Z,-3.60
2018-03-19T06:17:56.083Z,-3.60
2018-03-19T06:20:24.221Z,-3.60
2018-03-19T06:22:51.767Z,-3.60
2018-03-19T06:25:19.298Z,-3.50
2018-03-19T06:27:46.992Z,-3.50
2018-03-19T06:30:14.673Z,-3.50
2018-03-19T06:32:42.214Z,-3.40
2018-03-19T06:35:10.135Z,-3.40
2018-03-19T06:37:38.092Z,-3.40
2018-03-19T06:40:05.623Z,-3.40
2018-03-19T06:42:33.422Z,-3.40
2018-03-19T06:45:00.945Z,-3.40
2018-03-19T06:47:28.757Z,-3.40
2018-03-19T06:49:57.049Z,-3.60
2018-03-19T06:52:25.454Z,-3.50
2018-03-19T06:54:53.312Z,-3.50
2018-03-19T06:57:20.857Z,-3.50
2018-03-19T06:59:48.358Z,-3.40
2018-03-19T07:02:15.880Z,-3.40
2018-03-19T07:04:43.813Z,-3.30
2018-03-19T07:07:11.358Z,-3.30
2018-03-19T07:09:38.857Z,-3.30
2018-03-19T07:12:06.376Z,-3.40
2018-03-19T07:14:33.901Z,-3.30
2018-03-19T07:17:01.423Z,-3.20
2018-03-19T07:19:28.933Z,-3.30
2018-03-19T07:21:56.471Z,-3.40
2018-03-19T07:24:23.981Z,-3.50
2018-03-19T07:26:51.467Z,-3.40
2018-03-19T07:29:19.014Z,-3.30
2018-03-19T07:31:47.265Z,-3.30
2018-03-19T07:34:14.905Z,-3.30
2018-03-19T07:36:42.444Z,-3.20
2018-03-19T07:39:10.056Z,-3.20
2018-03-19T07:41:38.342Z,-3.20
2018-03-19T07:44:07.172Z,-3.10
2018-03-19T07:46:34.684Z,-3.10
2018-03-19T07:49:02.965Z,-3.10
2018-03-19T07:51:31.242Z,-3.10
2018-03-19T07:53:58.739Z,-3.20
2018-03-19T07:56:26.275Z,-3.20
2018-03-19T07:58:53.769Z,-3.30
2018-03-19T08:01:21.330Z,-3.20
2018-03-19T08:03:48.837Z,-3.10
2018-03-19T08:06:17.279Z,-3.00
2018-03-19T08:08:44.803Z,-3.00
2018-03-19T08:11:12.361Z,-3.00
2018-03-19T08:13:39.871Z,-3.00
2018-03-19T08:16:07.408Z,-3.00
2018-03-19T08:18:35.056Z,-3.10
2018-03-19T08:21:02.714Z,-3.10
2018-03-19T08:23:30.266Z,-2.90
2018-03-19T08:25:57.832Z,-2.80
2018-03-19T08:28:25.348Z,-2.90
2018-03-19T08:30:54.127Z,-2.70
2018-03-19T08:33:21.930Z,-2.70
2018-03-19T08:35:49.507Z,-2.80
2018-03-19T08:38:17.279Z,-2.80
2018-03-19T08:40:44.783Z,-2.80
2018-03-19T08:43:13.398Z,-3.10
2018-03-19T08:45:40.974Z,-3.10
2018-03-19T08:48:08.514Z,-3.00
2018-03-19T08:50:36.102Z,-2.90
2018-03-19T08:53:03.604Z,-2.70
2018-03-19T08:55:31.178Z,-2.70
2018-03-19T08:57:58.724Z,-2.50
2018-03-19T09:00:27.118Z,-2.40
2018-03-19T09:02:54.621Z,-2.40
2018-03-19T09:05:22.112Z,-2.20
2018-03-19T09:07:50.419Z,-2.20
2018-03-19T09:10:17.936Z,-2.20
2018-03-19T09:12:45.534Z,-2.10
2018-03-19T09:15:13.059Z,-1.90
2018-03-19T09:17:40.579Z,-1.70
2018-03-19T09:20:08.115Z,-1.60
2018-03-19T09:22:35.645Z,-1.50
2018-03-19T09:25:03.171Z,-1.40
2018-03-19T09:27:30.702Z,-1.40
2018-03-19T09:29:58.205Z,-1.50
2018-03-19T09:32:25.712Z,-1.40
2018-03-19T09:34:53.237Z,-1.40
2018-03-19T09:37:20.731Z,-1.40
2018-03-19T09:39:48.283Z,-1.40
2018-03-19T09:42:15.823Z,-1.40
2018-03-19T09:44:43.409Z,-1.60
2018-03-19T09:47:10.935Z,-1.50
2018-03-19T09:49:38.434Z,-1.60
2018-03-19T09:52:05.959Z,-1.50
2018-03-19T09:54:33.487Z,-1.50
2018-03-19T09:57:02.044Z,-1.50
2018-03-19T09:59:29.542Z,-1.50
2018-03-19T10:01:57.076Z,-1.40
2018-03-19T10:04:24.619Z,-1.40
2018-03-19T10:06:52.578Z,-1.40
2018-03-19T10:09:20.189Z,-1.30
2018-03-19T10:11:47.709Z,-1.30
2018-03-19T10:14:15.736Z,-1.20
2018-03-19T10:16:43.704Z,-1.30
2018-03-19T10:19:11.216Z,-1.40
2018-03-19T10:21:38.702Z,-1.60
2018-03-19T10:24:06.421Z,-1.50
2018-03-19T10:26:33.963Z,-1.40
2018-03-19T10:29:01.478Z,-1.30
2018-03-19T10:31:29.006Z,-1.40
2018-03-19T10:33:56.532Z,-1.50
2018-03-19T10:36:24.302Z,-1.40
2018-03-19T10:38:51.820Z,-1.60
2018-03-19T10:41:20.078Z,-1.70
2018-03-19T10:43:48.384Z,-1.70
2018-03-19T10:46:15.910Z,-1.70
2018-03-19T10:48:43.428Z,-1.70
2018-03-19T10:51:10.951Z,-1.70
2018-03-19T10:53:38.455Z,-1.80
2018-03-19T10:56:05.987Z,-1.70
2018-03-19T10:58:33.519Z,-1.70
2018-03-19T11:01:06.946Z,-1.90
2018-03-19T11:03:34.509Z,-2.20
2018-03-19T11:06:07.651Z,-2.20
2018-03-19T11:08:35.148Z,-2.30
2018-03-19T11:11:02.692Z,-2.20
2018-03-19T11:13:31.409Z,-1.90
2018-03-19T11:15:58.950Z,-1.90
2018-03-19T11:18:26.473Z,-1.70
2018-03-19T11:20:54.916Z,-1.60
2018-03-19T11:23:22.467Z,-1.60
2018-03-19T11:25:50.026Z,-1.40
2018-03-19T11:28:17.570Z,-1.60
2018-03-19T11:30:45.074Z,-1.90
2018-03-19T11:33:12.638Z,-1.80
2018-03-19T11:35:40.144Z,-2.00
2018-03-19T11:38:07.705Z,-2.10
2018-03-19T11:40:35.276Z,-1.90
2018-03-19T11:43:02.783Z,-1.90
2018-03-19T11:45:31.099Z,-1.70
2018-03-19T11:47:58.599Z,-1.80
2018-03-19T11:50:26.129Z,-1.70
2018-03-19T11:52:53.695Z,-1.60
2018-03-19T11:55:21.187Z,-1.50
2018-03-19T11:57:49.473Z,-1.10
2018-03-19T12:00:18.154Z,-1.10
2018-03-19T12:02:46.482Z,-1.30
2018-03-19T12:05:14.012Z,-1.30
2018-03-19T12:07:41.511Z,-1.30
2018-03-19T12:10:09.043Z,-1.20
2018-03-19T12:12:37.078Z,-1.20
2018-03-19T12:15:05.495Z,-1.30
2018-03-19T12:17:33.135Z,-1.30
2018-03-19T12:20:00.660Z,-1.30
2018-03-19T12:22:28.170Z,-1.30
2018-03-19T12:24:55.938Z,-1.20
2018-03-19T12:27:23.504Z,-1.00
2018-03-19T12:29:51.038Z,-0.80
2018-03-19T12:32:18.530Z,-0.90
2018-03-19T12:34:46.093Z,-0.70
2018-03-19T12:37:13.601Z,-0.70
2018-03-19T12:39:41.865Z,-0.60
2018-03-19T12:42:10.180Z,-0.40
2018-03-19T12:44:37.847Z,-0.40
2018-03-19T12:47:05.364Z,-0.50
2018-03-19T12:49:32.907Z,-0.30
2018-03-19T12:52:00.451Z,-0.40
2018-03-19T12:54:28.017Z,-0.40
2018-03-19T12:56:55.559Z,-0.50
2018-03-19T12:59:23.506Z,-0.30
2018-03-19T13:01:51.154Z,-0.20
2018-03-19T13:04:18.734Z,-0.10
2018-03-19T13:06:46.678Z,-0.10
2018-03-19T13:09:14.270Z,-0.40
2018-03-19T13:11:41.789Z,-0.70
2018-03-19T13:14:09.388Z,-0.50
2018-03-19T13:16:36.912Z,-0.60
2018-03-19T13:19:04.432Z,-0.40
2018-03-19T13:21:31.955Z,-0.20
2018-03-19T13:23:59.609Z,0.10
2018-03-19T13:26:27.925Z,0.30
2018-03-19T13:28:55.434Z,0.40
2018-03-19T13:31:23.093Z,0.40
2018-03-19T13:33:51.846Z,0.50
2018-03-19T13:36:19.421Z,0.40
2018-03-19T13:38:46.952Z,0.40
2018-03-19T13:41:14.486Z,0.50
2018-03-19T13:43:42.137Z,0.10
2018-03-19T13:46:10.016Z,0.10
2018-03-19T13:48:37.556Z,0.00
2018-03-19T13:51:05.078Z,-0.30
2018-03-19T13:53:32.710Z,-0.30
2018-03-19T13:56:00.173Z,-0.20
2018-03-19T13:58:27.706Z,-0.10
2018-03-19T14:00:55.283Z,-0.10
2018-03-19T14:03:22.770Z,-0.20
2018-03-19T14:05:50.305Z,-0.20
2018-03-19T14:08:17.851Z,-0.40
2018-03-19T14:10:45.533Z,-0.40
2018-03-19T14:13:13.161Z,-0.40
2018-03-19T14:15:41.493Z,-0.40
2018-03-19T14:18:09.035Z,-0.40
2018-03-19T14:20:37.320Z,-0.30
2018-03-19T14:23:04.906Z,-0.30
2018-03-19T14:25:32.419Z,-0.40
2018-03-19T14:28:00.047Z,-0.10
2018-03-19T14:30:27.511Z,0.00
2018-03-19T14:32:55.078Z,0.20
2018-03-19T14:35:22.568Z,0.00
2018-03-19T14:37:50.975Z,0.00
2018-03-19T14:40:18.707Z,0.00
2018-03-19T14:42:46.266Z,0.20
2018-03-19T14:45:13.778Z,0.10
2018-03-19T14:47:41.330Z,0.00
2018-03-19T14:50:08.873Z,0.10
2018-03-19T14:52:36.544Z,0.20
2018-03-19T14:55:04.187Z,0.00
2018-03-19T14:57:31.855Z,-0.30
2018-03-19T14:59:59.388Z,-0.30
2018-03-19T15:02:26.933Z,-0.30
2018-03-19T15:04:54.469Z,-0.50
2018-03-19T15:07:22.076Z,-0.70
2018-03-19T15:09:50.417Z,-0.70
2018-03-19T15:12:18.156Z,-0.70
2018-03-19T15:14:45.738Z,-0.70
2018-03-19T15:17:13.250Z,-0.90
2018-03-19T15:19:40.765Z,-0.90
2018-03-19T15:22:08.311Z,-0.90
2018-03-19T15:24:35.901Z,-0.80
2018-03-19T15:27:03.468Z,-0.90
2018-03-19T15:29:31.170Z,-1.00
2018-03-19T15:31:58.673Z,-1.10
2018-03-19T15:34:26.286Z,-1.20
2018-03-19T15:36:54.050Z,-1.20
2018-03-19T15:39:21.583Z,-1.40
2018-03-19T15:41:49.080Z,-1.40
2018-03-19T15:44:16.631Z,-1.70
2018-03-19T15:46:44.176Z,-1.80
2018-03-19T15:49:11.888Z,-1.90
2018-03-19T17:42:23.787Z,-3.40
2018-03-19T17:44:51.514Z,-3.40
2018-03-19T17:47:19.056Z,-3.30
2018-03-19T17:49:46.616Z,-3.40
2018-03-19T17:52:14.130Z,-3.40
2018-03-19T17:54:41.657Z,-3.40
2018-03-19T17:57:09.184Z,-3.40
2018-03-19T17:59:36.762Z,-3.40
2018-03-19T18:02:04.295Z,-3.40
2018-03-19T18:04:31.833Z,-3.40
2018-03-19T18:07:00.114Z,-3.40
2018-03-19T18:09:28.735Z,-3.30
2018-03-19T18:11:56.297Z,-3.40
2018-03-19T18:14:23.865Z,-3.30
2018-03-19T18:16:51.411Z,-3.40
2018-03-19T18:19:18.982Z,-3.40
2018-03-19T18:21:46.637Z,-3.40
2018-03-19T18:24:14.188Z,-3.40
2018-03-19T18:26:41.701Z,-3.40
2018-03-19T18:29:10.822Z,-3.50
2018-03-19T18:31:38.328Z,-3.50
2018-03-19T18:34:05.845Z,-3.50
2018-03-19T18:36:33.338Z,-3.50
2018-03-19T18:39:01.041Z,-3.60
2018-03-19T18:41:28.586Z,-3.60
2018-03-19T18:43:56.090Z,-3.60
2018-03-19T18:46:23.666Z,-3.60
2018-03-19T18:48:51.162Z,-3.60
2018-03-19T18:51:18.704Z,-3.60
2018-03-19T18:53:46.313Z,-3.60
2018-03-19T18:56:13.814Z,-3.60
2018-03-19T18:58:41.370Z,-3.60
2018-03-19T19:01:09.016Z,-3.60
2018-03-19T19:03:36.550Z,-3.60
2018-03-19T19:06:05.007Z,-3.60
2018-03-19T19:08:32.526Z,-3.60
2018-03-19T19:11:00.039Z,-3.60
2018-03-19T19:13:27.986Z,-3.50
2018-03-19T19:15:55.500Z,-3.60
2018-03-19T19:18:23.104Z,-3.60
2018-03-19T19:20:51.645Z,-3.70
2018-03-19T19:23:19.277Z,-3.70
2018-03-19T19:25:46.823Z,-3.70
2018-03-19T19:28:14.405Z,-3.70
2018-03-19T19:30:41.977Z,-3.70
2018-03-19T19:33:09.712Z,-3.70
2018-03-19T19:35:38.190Z,-3.60
2018-03-19T19:38:05.715Z,-3.60
2018-03-19T19:40:33.267Z,-3.60
2018-03-19T19:43:00.842Z,-3.60
2018-03-19T19:45:28.396Z,-3.70
2018-03-19T19:47:55.946Z,-3.70
2018-03-19T19:50:23.479Z,-3.60
2018-03-19T19:52:50.987Z,-3.70
2018-03-19T19:55:18.504Z,-3.60
2018-03-19T19:57:46.018Z,-3.70
2018-03-19T20:00:13.568Z,-3.70
2018-03-19T20:02:41.125Z,-3.80
2018-03-19T20:05:08.654Z,-3.70
2018-03-19T20:07:36.215Z,-3.80
2018-03-19T20:10:03.744Z,-3.80
2018-03-19T20:12:31.336Z,-3.80
2018-03-19T20:14:58.905Z,-3.80
2018-03-19T20:17:26.568Z,-3.90
2018-03-19T20:19:54.087Z,-3.80
2018-03-19T20:22:21.638Z,-3.80
2018-03-19T20:24:49.215Z,-3.80
2018-03-19T20:27:16.707Z,-3.90
2018-03-19T20:29:44.276Z,-3.80
2018-03-19T20:32:11.792Z,-3.80
2018-03-19T20:34:39.303Z,-3.70
2018-03-19T20:37:06.848Z,-3.70
2018-03-19T20:39:34.366Z,-3.70
2018-03-19T20:42:02.655Z,-3.60
2018-03-19T20:44:30.960Z,-3.60
2018-03-19T20:46:58.482Z,-3.60
2018-03-19T20:49:26.015Z,-3.60
2018-03-19T20:51:53.626Z,-3.60
2018-03-19T20:54:23.200Z,-3.60
2018-03-19T20:56:51.482Z,-3.80
2018-03-19T20:59:35.495Z,-3.70
2018-03-19T21:02:04.876Z,-3.70
2018-03-19T21:04:32.458Z,-3.70
2018-03-19T21:07:00.005Z,-3.70
2018-03-19T21:09:27.537Z,-3.70
2018-03-19T21:11:55.162Z,-3.70
2018-03-19T21:14:23.521Z,-3.70
2018-03-19T21:16:51.077Z,-3.70
2018-03-19T21:30:56.021Z,-3.70
2018-03-19T21:33:24.309Z,-3.80
2018-03-19T21:35:51.817Z,-3.90
2018-03-19T21:38:19.369Z,-3.80
2018-03-19T21:40:46.952Z,-3.80
2018-03-19T21:43:14.496Z,-3.80
2018-03-19T21:45:42.059Z,-3.80
2018-03-19T21:48:09.574Z,-3.90
2018-03-19T21:50:37.080Z,-3.80
2018-03-19T21:53:04.809Z,-3.80
2018-03-19T21:55:32.465Z,-3.80
2018-03-19T21:58:00.223Z,-3.80
2018-03-19T22:00:29.193Z,-3.80
2018-03-19T22:02:57.249Z,-3.90
2018-03-19T22:05:25.298Z,-3.90
2018-03-19T22:07:52.966Z,-3.90
2018-03-19T22:10:21.250Z,-3.90
2018-03-19T22:12:48.782Z,-4.00
2018-03-19T22:15:16.309Z,-3.90
2018-03-19T22:17:44.709Z,-3.90
2018-03-19T22:20:12.207Z,-3.90
2018-03-19T22:22:40.533Z,-3.90
2018-03-19T22:25:08.058Z,-3.90
2018-03-19T22:27:35.784Z,-3.90
2018-03-19T22:30:03.314Z,-3.90
2018-03-19T22:32:31.145Z,-3.90
2018-03-19T22:34:58.694Z,-3.90
2018-03-19T22:37:26.213Z,-4.00
2018-03-19T22:39:53.822Z,-4.00
2018-03-19T22:42:22.123Z,-4.00
2018-03-19T22:44:50.397Z,-4.00
2018-03-19T22:47:18.640Z,-4.00
2018-03-19T22:49:46.174Z,-4.00
2018-03-19T22:52:13.669Z,-4.00
2018-03-19T22:54:41.234Z,-4.00
2018-03-19T22:57:08.770Z,-4.00
2018-03-19T22:59:36.404Z,-4.00
2018-03-19T23:02:04.262Z,-4.10
2018-03-19T23:04:43.627Z,-4.10
2018-03-19T23:07:11.162Z,-4.10
2018-03-19T23:09:39.080Z,-4.10
2018-03-19T23:12:06.640Z,-4.10
2018-03-19T23:14:34.206Z,-4.00
2018-03-19T23:17:02.828Z,-4.10
2018-03-19T23:19:30.327Z,-4.10
2018-03-19T23:21:57.845Z,-4.10
2018-03-19T23:24:25.602Z,-4.10
2018-03-19T23:26:53.301Z,-4.10
2018-03-19T23:29:21.017Z,-4.10
2018-03-19T23:31:48.558Z,-4.20
2018-03-19T23:34:16.976Z,-4.20
2018-03-19T23:36:44.579Z,-4.20
2018-03-19T23:39:12.088Z,-4.20
2018-03-19T23:41:39.618Z,-4.20
2018-03-19T23:44:07.344Z,-4.30
2018-03-19T23:46:34.863Z,-4.30
2018-03-19T23:49:02.394Z,-4.30
2018-03-19T23:51:29.911Z,-4.30
2018-03-19T23:53:57.570Z,-4.40
2018-03-19T23:56:25.092Z,-4.40
2018-03-19T23:58:52.748Z,-4.40
